ΕΜΥ, Εθνική Μετεωρολογική Υπηρεσία - Δελτία Καιρού, Προγνώσεις

ΑΕΡΟΝΑΥΤΙΛΙΑ

GREEK AIRPORTS CODES

TAF LGMG 220700Z 2209/2218 18010G20KT 9999 FEW020 BECMG 2213/2215 FEW020 BKN040=

EUROPEAN AIRPORTS CODES

LFPO 221200Z 05013KT 020V090 CAVOK 15/04 Q1023 NOSIG=